CBA8 weather

Beaverley Airport
Beaverley, British Columbia, Canada

Public forecast

Using degrees Celsius for public forecast. Weather courtesy of forecast.io.

METAR (pilot weather report)

Closest report is Prince George Airport, 8.4 nm (15.5 km) ENE. Retrieved 2019/08/19 21:00 UTC (30 minutes ago):

CYXS 192100Z AUTO VRB02KT 9SM SCT055 18/07 A2994 RMK SLP142 DENSITY ALT 3000FT

TAF (pilot weather forecast)

Closest forecast is Prince George Airport, 8.4 nm (15.5 km) ENE. Retrieved 2019/08/19 19:42 UTC (2 hours ago):

TAF CYXS 191838Z 1919/2007 VRB03KT P6SM SCT040 SCT240 BECMG 1922/1924 16008KT SCT080 OVC120 FM200200 16008KT P6SM BKN080 RMK FCST BASED ON AUTO OBS. NXT FCST BY 200100Z